Time;durP1;ratioP1;P1;durP2;ratioP2;P2;SDS_P1;SDS_P2;PMS_P1;PMS_P2;Temp;Humidity;BMP_temperature;BMP_pressure;BME280_temperature;BME280_humidity;BME280_pressure;Samples;Min_cycle;Max_cycle;Signal;HPM_P1;HPM_P2
2022/12/10 00:01:24;;;;;;;37.85;24.17;;;-0.10;99.90;;;;;;5056506;28;20130;-74
2022/12/10 00:03:50;;;;;;;39.00;24.50;;;1.50;99.90;;;;;;5042139;28;20084;-74
2022/12/10 00:06:19;;;;;;;45.85;26.10;;;-0.10;99.90;;;;;;5040065;28;20044;-74
2022/12/10 00:08:45;;;;;;;46.70;25.17;;;0.00;99.90;;;;;;5030022;28;20072;-74
2022/12/10 00:11:13;;;;;;;41.65;26.70;;;0.00;99.90;;;;;;5045845;28;20126;-73
2022/12/10 00:13:39;;;;;;;38.30;24.08;;;1.50;99.90;;;;;;5043974;28;20040;-73
2022/12/10 00:16:08;;;;;;;38.55;25.70;;;1.20;99.90;;;;;;5040923;28;20056;-73
2022/12/10 00:18:34;;;;;;;44.40;24.95;;;0.10;99.90;;;;;;5047647;28;20048;-74
2022/12/10 00:21:04;;;;;;;40.92;24.67;;;1.70;99.90;;;;;;5043148;28;20757;-74
2022/12/10 00:23:31;;;;;;;45.90;27.50;;;0.20;99.90;;;;;;5044519;28;20052;-73
2022/12/10 00:26:09;;;;;;;44.22;26.58;;;0.20;99.90;;;;;;5043077;28;20125;-73
2022/12/10 00:28:35;;;;;;;41.47;25.60;;;0.20;99.90;;;;;;5044363;28;20133;-73
2022/12/10 00:31:10;;;;;;;46.13;29.50;;;0.20;99.90;;;;;;5041229;28;20052;-74
2022/12/10 00:33:36;;;;;;;40.72;25.08;;;0.20;99.90;;;;;;5039736;28;20044;-73
2022/12/10 00:36:11;;;;;;;39.67;25.42;;;0.10;99.90;;;;;;5039347;28;20040;-73
2022/12/10 00:38:38;;;;;;;44.05;28.20;;;0.10;99.90;;;;;;5036238;28;20060;-72
2022/12/10 00:41:04;;;;;;;40.90;23.77;;;0.20;99.90;;;;;;5039699;28;20752;-73
2022/12/10 00:43:29;;;;;;;45.88;25.52;;;0.20;99.90;;;;;;5043607;28;20045;-73
2022/12/10 00:45:55;;;;;;;40.95;26.23;;;0.20;99.90;;;;;;5052188;28;20051;-72
2022/12/10 00:48:22;;;;;;;52.20;26.73;;;0.20;99.90;;;;;;5039864;28;20248;-72
2022/12/10 00:51:08;;;;;;;42.38;24.73;;;0.90;99.90;;;;;;5043169;28;20080;-72
2022/12/10 00:53:36;;;;;;;43.45;24.92;;;0.20;99.90;;;;;;5039702;28;20041;-72
2022/12/10 00:56:03;;;;;;;43.55;26.75;;;1.20;99.90;;;;;;5038613;28;20045;-72
2022/12/10 00:58:31;;;;;;;39.72;26.13;;;0.20;99.90;;;;;;5042812;28;20048;-74
2022/12/10 01:01:26;;;;;;;46.65;27.75;;;0.20;99.90;;;;;;5037986;28;20053;-74
2022/12/10 01:03:54;;;;;;;41.30;24.98;;;0.20;99.90;;;;;;5028949;28;20788;-74
2022/12/10 01:06:30;;;;;;;47.58;26.35;;;0.80;99.90;;;;;;5037896;28;20907;-73
2022/12/10 01:08:57;;;;;;;38.72;24.40;;;0.10;99.90;;;;;;5037232;28;20676;-72
2022/12/10 01:11:30;;;;;;;41.75;24.52;;;0.10;99.90;;;;;;5036913;28;20048;-74
2022/12/10 01:13:56;;;;;;;41.65;26.15;;;0.00;99.90;;;;;;5045526;28;20664;-74
2022/12/10 01:16:23;;;;;;;36.88;22.88;;;0.00;99.90;;;;;;5038195;28;20052;-73
2022/12/10 01:18:48;;;;;;;43.83;26.13;;;0.70;99.90;;;;;;5040313;28;20045;-73
2022/12/10 01:21:17;;;;;;;41.83;25.95;;;0.00;99.90;;;;;;5046906;28;20051;-73
2022/12/10 01:23:45;;;;;;;43.40;24.52;;;0.00;99.90;;;;;;5040720;28;20115;-74
2022/12/10 01:26:15;;;;;;;42.65;25.52;;;0.00;99.90;;;;;;5045196;28;20054;-73
2022/12/10 01:28:41;;;;;;;40.83;25.40;;;1.00;99.90;;;;;;5043974;28;20560;-74
2022/12/10 01:31:13;;;;;;;37.00;22.58;;;-0.10;99.90;;;;;;5046489;28;20048;-71
2022/12/10 01:33:39;;;;;;;34.95;22.80;;;1.50;99.90;;;;;;5038934;28;20140;-74
2022/12/10 01:36:09;;;;;;;46.88;26.42;;;1.30;99.90;;;;;;5036126;28;20051;-73
2022/12/10 01:38:35;;;;;;;43.97;25.83;;;-0.20;99.90;;;;;;5033741;28;20052;-73
2022/12/10 01:41:01;;;;;;;44.28;28.88;;;0.40;99.90;;;;;;5044103;28;20059;-74
2022/12/10 01:43:27;;;;;;;43.92;28.00;;;1.20;99.90;;;;;;5047278;28;21054;-73
2022/12/10 01:45:53;;;;;;;37.33;23.55;;;-0.30;99.90;;;;;;5040976;28;20127;-74
2022/12/10 01:48:19;;;;;;;45.90;27.42;;;0.10;99.90;;;;;;5051945;28;20080;-74
2022/12/10 01:50:45;;;;;;;38.75;23.77;;;0.80;99.90;;;;;;5054326;28;20755;-73
2022/12/10 01:53:13;;;;;;;42.42;26.27;;;-0.30;99.90;;;;;;5040414;28;20049;-73
2022/12/10 01:55:50;;;;;;;49.40;28.38;;;0.00;99.90;;;;;;5054779;28;20056;-74
2022/12/10 01:58:18;;;;;;;38.88;25.77;;;0.70;99.90;;;;;;5036138;28;20056;-73
2022/12/10 02:01:02;;;;;;;42.95;29.38;;;0.60;99.90;;;;;;5051222;28;20087;-74
2022/12/10 02:03:48;;;;;;;47.67;27.75;;;-0.40;99.90;;;;;;5037124;28;20052;-74
2022/12/10 02:06:25;;;;;;;45.72;26.83;;;-0.40;99.90;;;;;;5032960;28;20099;-74
2022/12/10 02:09:23;;;;;;;49.55;30.92;;;-0.40;99.90;;;;;;5046640;28;20832;-74
2022/12/10 02:12:19;;;;;;;46.22;28.00;;;-0.40;99.90;;;;;;5053289;28;20119;-74
2022/12/10 02:14:56;;;;;;;52.83;31.27;;;-0.50;99.90;;;;;;5054802;28;20040;-74
2022/12/10 02:17:48;;;;;;;38.97;26.27;;;-0.50;99.90;;;;;;5049297;28;20166;-73
2022/12/10 02:20:22;;;;;;;44.45;28.27;;;-0.50;99.90;;;;;;5054680;28;20053;-73
2022/12/10 02:22:50;;;;;;;42.05;27.25;;;-0.50;99.90;;;;;;5056009;28;20080;-74
2022/12/10 02:25:20;;;;;;;42.28;27.88;;;-0.50;99.90;;;;;;5047779;28;20044;-74
2022/12/10 02:28:05;;;;;;;50.33;31.40;;;0.40;99.90;;;;;;5054508;28;20048;-73
2022/12/10 02:30:32;;;;;;;43.40;27.38;;;-0.50;99.90;;;;;;5053230;28;20053;-73
2022/12/10 02:33:02;;;;;;;48.47;29.23;;;0.80;99.90;;;;;;5055602;28;20057;-74
2022/12/10 02:35:31;;;;;;;42.70;28.88;;;-0.60;99.90;;;;;;5052165;28;20048;-74
2022/12/10 02:38:26;;;;;;;47.67;26.65;;;-0.60;99.90;;;;;;5040825;28;20367;-73
2022/12/10 02:40:59;;;;;;;50.63;28.50;;;-0.60;99.90;;;;;;5046494;28;20761;-74
2022/12/10 02:43:27;;;;;;;42.25;27.00;;;-0.60;99.90;;;;;;5050903;28;20123;-74
2022/12/10 02:45:54;;;;;;;47.28;31.10;;;-0.60;99.90;;;;;;5049817;28;20767;-73
2022/12/10 02:48:20;;;;;;;50.00;31.35;;;-0.60;99.90;;;;;;5052534;28;20047;-73
2022/12/10 02:50:46;;;;;;;47.40;27.98;;;-0.70;99.90;;;;;;5054030;28;20048;-73
2022/12/10 02:53:12;;;;;;;48.40;30.63;;;-0.60;99.90;;;;;;5052371;28;20135;-73
2022/12/10 02:56:12;;;;;;;47.22;29.48;;;1.10;99.90;;;;;;5046115;28;20049;-73
2022/12/10 02:58:56;;;;;;;46.42;27.35;;;-0.60;99.90;;;;;;5043782;28;20211;-74
2022/12/10 03:01:39;;;;;;;35.30;22.90;;;-0.70;99.90;;;;;;5050839;28;20825;-74
2022/12/10 03:04:08;;;;;;;;;;;-0.70;99.90;;;;;;5051271;28;20040;-74
2022/12/10 03:06:42;;;;;;;44.33;28.80;;;0.50;99.90;;;;;;5050419;28;19942;-74
2022/12/10 03:09:14;;;;;;;41.92;30.65;;;-0.70;99.90;;;;;;5046447;28;20773;-74
2022/12/10 03:11:43;;;;;;;48.55;29.45;;;-0.80;99.90;;;;;;5052832;28;20623;-74
2022/12/10 03:14:21;;;;;;;43.95;27.70;;;0.20;99.90;;;;;;5049927;28;20434;-73
2022/12/10 03:16:54;;;;;;;49.85;31.92;;;-0.70;99.90;;;;;;5051681;28;20044;-73
2022/12/10 03:19:23;;;;;;;50.35;28.05;;;-0.70;99.90;;;;;;5050682;28;20056;-74
2022/12/10 03:21:51;;;;;;;46.80;28.67;;;-0.60;99.90;;;;;;5052668;28;20045;-73
2022/12/10 03:24:17;;;;;;;49.03;30.25;;;-0.70;99.90;;;;;;5047060;28;20272;-73
2022/12/10 03:26:47;;;;;;;49.97;30.23;;;-0.30;99.90;;;;;;5044014;28;20057;-74
2022/12/10 03:29:21;;;;;;;48.00;30.33;;;0.20;99.90;;;;;;5044659;28;20048;-73
2022/12/10 03:31:47;;;;;;;49.85;28.48;;;-0.70;99.90;;;;;;5041427;28;20110;-72
2022/12/10 03:34:13;;;;;;;51.38;28.80;;;-0.70;99.90;;;;;;5042668;28;20507;-73
2022/12/10 03:36:41;;;;;;;53.50;30.98;;;0.10;99.90;;;;;;5039790;28;21253;-73
2022/12/10 03:39:08;;;;;;;49.13;31.23;;;0.00;99.90;;;;;;5037292;28;20138;-71
2022/12/10 03:41:34;;;;;;;46.30;28.92;;;1.00;99.90;;;;;;5041273;28;20052;-72
2022/12/10 03:44:00;;;;;;;44.45;27.42;;;0.50;99.90;;;;;;5037640;28;20037;-72
2022/12/10 03:46:28;;;;;;;51.40;31.60;;;-0.70;99.90;;;;;;5040763;28;20057;-73
2022/12/10 03:48:55;;;;;;;54.40;30.92;;;-0.70;99.90;;;;;;5045653;28;20048;-72
2022/12/10 03:51:21;;;;;;;49.22;29.70;;;-0.60;99.90;;;;;;5041252;28;20361;-72
2022/12/10 03:53:49;;;;;;;46.97;28.13;;;-0.90;99.90;;;;;;5043238;28;20046;-72
2022/12/10 03:56:15;;;;;;;48.42;29.73;;;-0.80;99.90;;;;;;5051478;28;20052;-71
2022/12/10 03:58:41;;;;;;;42.03;28.90;;;-0.10;99.90;;;;;;5045818;28;20513;-72
2022/12/10 04:01:07;;;;;;;50.92;30.73;;;-0.70;99.90;;;;;;5051325;28;20124;-72
2022/12/10 04:03:37;;;;;;;55.90;32.50;;;-0.70;99.90;;;;;;5037549;28;20601;-72
2022/12/10 04:06:06;;;;;;;54.40;30.92;;;-0.70;99.90;;;;;;5049982;28;20500;-72
2022/12/10 04:08:32;;;;;;;40.40;27.27;;;-0.70;99.90;;;;;;5038150;28;20051;-71
2022/12/10 04:11:06;;;;;;;48.70;28.58;;;-0.70;99.90;;;;;;5042111;28;20052;-72
2022/12/10 04:16:27;;;;;;;51.83;32.60;;;1.00;99.90;;;;;;5037350;28;20068;-73
2022/12/10 04:19:05;;;;;;;57.13;32.63;;;-0.70;99.90;;;;;;5042226;28;20511;-73
2022/12/10 04:27:11;;;;;;;53.78;32.97;;;-0.80;99.90;;;;;;5052684;28;20055;-72
2022/12/10 04:29:37;;;;;;;53.97;31.20;;;-0.90;99.90;;;;;;5040820;28;20106;-73
2022/12/10 04:32:02;;;;;;;47.13;30.00;;;-0.80;99.90;;;;;;5042914;28;20655;-73
2022/12/10 04:34:28;;;;;;;46.67;30.17;;;-0.80;99.90;;;;;;5042382;28;20060;-74
2022/12/10 04:36:54;;;;;;;55.50;33.63;;;-0.80;99.90;;;;;;5038094;28;20060;-72
2022/12/10 04:39:20;;;;;;;53.38;30.70;;;-0.80;99.90;;;;;;5049502;28;20151;-72
2022/12/10 04:41:47;;;;;;;52.50;31.52;;;-0.80;99.90;;;;;;5048142;28;20044;-72
2022/12/10 04:44:13;;;;;;;46.03;28.23;;;-0.80;99.90;;;;;;5040700;28;20040;-71
2022/12/10 04:46:39;;;;;;;50.42;31.00;;;-0.90;99.90;;;;;;5047216;28;20052;-73
2022/12/10 04:49:05;;;;;;;42.88;27.70;;;-0.90;99.90;;;;;;5037022;28;20049;-70
2022/12/10 04:51:31;;;;;;;50.50;30.90;;;-0.90;99.90;;;;;;5046026;28;20465;-73
2022/12/10 04:53:58;;;;;;;48.58;30.60;;;-0.90;99.90;;;;;;5040335;28;20122;-71
2022/12/10 04:56:24;;;;;;;55.22;30.67;;;0.10;99.90;;;;;;5048177;28;20405;-71
2022/12/10 04:58:49;;;;;;;48.28;28.52;;;-0.90;99.90;;;;;;5045535;28;20048;-73
2022/12/10 05:01:15;;;;;;;51.80;31.30;;;0.70;99.90;;;;;;5051205;28;20055;-72
2022/12/10 05:03:41;;;;;;;51.95;30.35;;;-0.60;99.90;;;;;;5047883;28;20052;-72
2022/12/10 05:06:10;;;;;;;43.20;26.92;;;-1.00;99.90;;;;;;5040876;28;20044;-72
2022/12/10 05:08:38;;;;;;;51.08;31.15;;;-0.50;99.90;;;;;;5047210;28;20041;-72
2022/12/10 05:11:25;;;;;;;54.28;32.25;;;-0.40;99.90;;;;;;5051518;28;20044;-71
2022/12/10 05:13:52;;;;;;;48.53;29.35;;;-1.00;99.90;;;;;;5048566;28;20057;-72
2022/12/10 05:16:20;;;;;;;41.28;26.63;;;-1.00;99.90;;;;;;5042901;28;20049;-73
2022/12/10 05:18:45;;;;;;;57.15;33.13;;;-1.00;99.90;;;;;;5046542;28;20124;-72
2022/12/10 05:21:14;;;;;;;55.80;33.00;;;0.70;99.90;;;;;;5038103;28;20234;-72
2022/12/10 05:23:42;;;;;;;53.53;31.48;;;-1.00;99.90;;;;;;5054572;28;20052;-72
2022/12/10 05:26:09;;;;;;;50.88;30.85;;;-0.50;99.90;;;;;;5044346;28;20063;-72
2022/12/10 05:28:38;;;;;;;53.03;31.50;;;-1.00;99.90;;;;;;5038549;28;20382;-73
2022/12/10 05:31:04;;;;;;;49.90;31.67;;;-1.00;99.90;;;;;;5046475;28;20053;-72
2022/12/10 05:33:31;;;;;;;48.65;26.73;;;-1.00;99.90;;;;;;5047773;28;20044;-71
2022/12/10 05:35:59;;;;;;;53.90;30.45;;;-1.00;99.90;;;;;;5053597;28;20102;-71
2022/12/10 05:38:27;;;;;;;49.13;29.48;;;-1.00;99.90;;;;;;5041112;28;20060;-72
2022/12/10 05:40:53;;;;;;;51.92;29.80;;;0.50;99.90;;;;;;5035947;28;20083;-73
2022/12/10 05:43:19;;;;;;;49.60;28.88;;;-1.10;99.90;;;;;;5039379;28;20472;-73
2022/12/10 05:45:45;;;;;;;59.08;34.00;;;-1.10;99.90;;;;;;5045720;28;20765;-70
2022/12/10 05:48:13;;;;;;;47.78;29.50;;;0.20;99.90;;;;;;5037148;28;20091;-70
2022/12/10 05:50:39;;;;;;;56.55;32.70;;;-0.90;99.90;;;;;;5050983;28;20724;-73
2022/12/10 05:53:05;;;;;;;48.42;28.60;;;-1.10;99.90;;;;;;5042297;28;20110;-73
2022/12/10 05:55:32;;;;;;;52.05;31.73;;;-1.10;99.90;;;;;;5049698;28;20056;-72
2022/12/10 05:57:59;;;;;;;59.70;34.95;;;-1.10;99.90;;;;;;5045199;28;20045;-71
2022/12/10 06:00:25;;;;;;;52.53;33.08;;;-1.10;99.90;;;;;;5050353;28;20177;-73
2022/12/10 06:02:51;;;;;;;58.15;33.45;;;-1.00;99.90;;;;;;5040922;28;20048;-74
2022/12/10 06:05:18;;;;;;;53.20;32.65;;;-1.10;99.90;;;;;;5044676;28;20151;-70
2022/12/10 06:07:44;;;;;;;57.58;31.65;;;-1.00;99.90;;;;;;5052777;28;20054;-70
2022/12/10 06:10:10;;;;;;;45.50;29.88;;;-1.10;99.90;;;;;;5063480;28;20141;-71
2022/12/10 06:12:36;;;;;;;52.47;32.15;;;0.50;99.90;;;;;;5042800;28;20036;-71
2022/12/10 06:15:02;;;;;;;48.85;30.50;;;-1.10;99.90;;;;;;5050543;28;20060;-71
2022/12/10 06:17:28;;;;;;;52.20;31.05;;;-1.00;99.90;;;;;;5079180;28;20049;-72
2022/12/10 06:19:53;;;;;;;54.33;31.05;;;0.80;99.90;;;;;;5044168;28;20045;-73
2022/12/10 06:22:19;;;;;;;52.97;31.38;;;-0.90;99.90;;;;;;5044978;28;20060;-70
2022/12/10 06:24:45;;;;;;;56.50;34.78;;;0.20;99.90;;;;;;5043862;28;20536;-70
2022/12/10 06:27:10;;;;;;;55.60;32.05;;;-0.90;99.90;;;;;;5048332;28;20492;-71
2022/12/10 06:29:36;;;;;;;59.03;34.95;;;0.70;99.90;;;;;;5048423;28;20045;-72
2022/12/10 06:32:02;;;;;;;56.50;34.38;;;-0.90;99.90;;;;;;5052107;28;20055;-70
2022/12/10 06:34:27;;;;;;;65.07;36.65;;;-0.80;99.90;;;;;;5047546;28;20045;-73
2022/12/10 06:36:53;;;;;;;53.83;31.98;;;-0.80;99.90;;;;;;5038446;28;20057;-73
2022/12/10 06:39:19;;;;;;;60.78;37.97;;;-0.70;99.90;;;;;;5054311;28;20053;-72
2022/12/10 06:41:45;;;;;;;53.47;34.88;;;-0.70;99.90;;;;;;5051457;28;20141;-71
2022/12/10 06:44:12;;;;;;;57.97;35.05;;;-0.70;99.90;;;;;;5048281;28;20071;-71
2022/12/10 06:46:40;;;;;;;59.40;36.10;;;0.50;99.90;;;;;;5043970;28;20045;-72
2022/12/10 06:49:06;;;;;;;64.55;39.13;;;-0.40;99.90;;;;;;5046076;28;20149;-71
2022/12/10 06:51:32;;;;;;;67.72;37.17;;;-0.70;99.90;;;;;;5047268;28;20097;-72
2022/12/10 06:53:58;;;;;;;69.22;39.28;;;-0.70;99.90;;;;;;5039741;28;20045;-71
2022/12/10 06:56:23;;;;;;;57.35;35.45;;;-0.30;99.90;;;;;;5044747;28;20044;-72
2022/12/10 06:58:49;;;;;;;64.82;36.97;;;-0.80;99.90;;;;;;5045140;28;20235;-72
2022/12/10 07:01:20;;;;;;;59.03;34.30;;;0.30;99.90;;;;;;5045224;28;20059;-71
2022/12/10 07:03:51;;;;;;;63.67;37.17;;;0.00;99.90;;;;;;5049724;28;20091;-70
2022/12/10 07:06:18;;;;;;;55.03;35.10;;;-0.70;99.90;;;;;;5039700;28;20063;-71
2022/12/10 07:08:44;;;;;;;67.03;38.63;;;-0.70;99.90;;;;;;5048171;28;20387;-72
2022/12/10 07:11:13;;;;;;;63.53;36.60;;;-0.60;99.90;;;;;;5044772;28;20793;-71
2022/12/10 07:13:39;;;;;;;66.45;39.38;;;-0.60;99.90;;;;;;5044090;28;20541;-70
2022/12/10 07:16:13;;;;;;;62.05;36.83;;;-0.50;99.90;;;;;;5040545;28;20143;-71
2022/12/10 07:18:39;;;;;;;70.43;38.28;;;-0.50;99.90;;;;;;5045203;28;20041;-74
2022/12/10 07:21:39;;;;;;;68.57;38.85;;;1.10;99.90;;;;;;5041277;28;20060;-73
2022/12/10 07:24:09;;;;;;;58.72;36.83;;;-0.50;99.90;;;;;;5031150;28;20501;-71
2022/12/10 07:26:38;;;;;;;77.20;41.70;;;-0.50;99.90;;;;;;5044933;28;20053;-71
2022/12/10 07:29:06;;;;;;;58.20;36.00;;;0.90;99.90;;;;;;5042601;28;20043;-72
2022/12/10 07:31:32;;;;;;;65.68;36.63;;;0.50;99.90;;;;;;5045832;28;20151;-74
2022/12/10 07:33:58;;;;;;;69.28;37.33;;;0.70;99.90;;;;;;5045430;28;20049;-71
2022/12/10 07:36:25;;;;;;;65.05;38.58;;;-0.40;99.90;;;;;;5039665;28;20133;-71
2022/12/10 07:38:52;;;;;;;75.72;39.28;;;-0.40;99.90;;;;;;5041149;28;20052;-70
2022/12/10 07:41:18;;;;;;;65.53;37.45;;;1.30;99.90;;;;;;5043274;28;20084;-72
2022/12/10 07:43:45;;;;;;;67.28;38.55;;;-0.20;99.90;;;;;;5041827;28;20628;-75
2022/12/10 07:46:24;;;;;;;65.13;35.00;;;-0.40;99.90;;;;;;5041521;28;20053;-71
2022/12/10 07:48:50;;;;;;;61.83;34.97;;;-0.40;99.90;;;;;;5037984;28;20044;-71
2022/12/10 07:51:17;;;;;;;62.70;35.78;;;-0.40;99.90;;;;;;5044051;28;20084;-71
2022/12/10 07:53:43;;;;;;;66.80;38.58;;;-0.40;99.90;;;;;;5046551;28;20128;-72
2022/12/10 07:56:09;;;;;;;71.68;42.65;;;0.90;99.90;;;;;;5046711;28;20045;-73
2022/12/10 07:58:35;;;;;;;63.25;39.75;;;-0.30;99.90;;;;;;5051969;28;20044;-72
2022/12/10 08:01:09;;;;;;;60.13;38.08;;;0.50;99.90;;;;;;5042243;28;20060;-72
2022/12/10 08:03:35;;;;;;;69.80;38.40;;;-0.40;99.90;;;;;;5043959;28;20057;-73
2022/12/10 08:06:06;;;;;;;65.78;38.97;;;0.90;99.90;;;;;;5047980;28;20111;-72
2022/12/10 08:08:36;;;;;;;62.55;39.20;;;-0.40;99.90;;;;;;5045831;28;20086;-72
2022/12/10 08:11:03;;;;;;;70.30;42.05;;;-0.50;99.90;;;;;;5042787;28;20052;-72
2022/12/10 08:13:29;;;;;;;67.90;38.95;;;-0.50;99.90;;;;;;5050527;28;20048;-75
2022/12/10 08:16:02;;;;;;;67.18;38.15;;;0.00;99.90;;;;;;5048952;28;20130;-74
2022/12/10 08:18:27;;;;;;;62.85;39.92;;;1.00;99.90;;;;;;5044626;28;20037;-74
2022/12/10 08:20:53;;;;;;;74.75;41.60;;;-0.40;99.90;;;;;;5054487;28;20479;-73
2022/12/10 08:23:19;;;;;;;63.75;38.28;;;-0.40;99.90;;;;;;5038425;28;20053;-74
2022/12/10 08:25:44;;;;;;;57.05;34.15;;;-0.10;99.90;;;;;;5041008;28;20045;-73
2022/12/10 08:28:10;;;;;;;64.93;40.60;;;-0.40;99.90;;;;;;5035645;28;20143;-72
2022/12/10 08:30:35;;;;;;;67.68;41.05;;;1.30;99.90;;;;;;5039840;28;20041;-74
2022/12/10 08:33:01;;;;;;;66.07;39.97;;;0.50;99.90;;;;;;5052802;28;20486;-72
2022/12/10 08:35:28;;;;;;;70.05;39.63;;;-0.20;99.90;;;;;;5038829;28;20076;-72
2022/12/10 08:37:54;;;;;;;70.70;40.10;;;-0.30;99.90;;;;;;5042540;28;20516;-74
2022/12/10 08:40:19;;;;;;;69.20;41.03;;;0.60;99.90;;;;;;5041902;28;20849;-73
2022/12/10 08:42:45;;;;;;;64.63;38.83;;;-0.30;99.90;;;;;;5043872;28;20053;-72
2022/12/10 08:45:11;;;;;;;67.50;41.03;;;-0.20;99.90;;;;;;5039968;28;20455;-72
2022/12/10 08:47:36;;;;;;;67.13;40.90;;;-0.20;99.90;;;;;;5037632;28;20044;-74
2022/12/10 08:50:03;;;;;;;69.50;42.00;;;-0.20;99.90;;;;;;5044821;28;20083;-73
2022/12/10 08:52:29;;;;;;;63.83;38.78;;;-0.20;99.90;;;;;;5044905;28;20118;-73
2022/12/10 08:54:55;;;;;;;63.10;39.40;;;-0.20;99.90;;;;;;5027964;28;20053;-72
2022/12/10 08:57:21;;;;;;;56.75;33.10;;;-0.20;99.90;;;;;;5039933;28;20060;-73
2022/12/10 08:59:46;;;;;;;66.40;36.88;;;0.10;99.90;;;;;;5041559;28;20735;-73
2022/12/10 09:02:12;;;;;;;69.97;41.28;;;0.70;99.90;;;;;;5045612;28;20830;-71
2022/12/10 09:04:39;;;;;;;60.03;36.90;;;-0.10;99.90;;;;;;5043691;28;20048;-74
2022/12/10 09:07:05;;;;;;;60.45;38.60;;;1.10;99.90;;;;;;5020395;28;20125;-73
2022/12/10 09:09:31;;;;;;;63.95;40.25;;;-0.10;99.90;;;;;;5038074;28;20532;-72
2022/12/10 09:11:58;;;;;;;60.33;37.15;;;1.60;99.90;;;;;;5051108;28;20052;-74
2022/12/10 09:14:23;;;;;;;60.85;37.97;;;0.60;99.90;;;;;;5043845;28;20045;-72
2022/12/10 09:16:49;;;;;;;63.05;38.85;;;0.00;99.90;;;;;;5036544;28;20118;-72
2022/12/10 09:19:15;;;;;;;62.63;38.40;;;0.40;99.90;;;;;;5042538;28;20045;-72
2022/12/10 09:21:41;;;;;;;64.85;38.83;;;0.00;99.90;;;;;;5055490;28;20048;-73
2022/12/10 09:24:07;;;;;;;59.95;38.83;;;0.00;99.90;;;;;;5039946;28;20052;-74
2022/12/10 09:26:33;;;;;;;60.55;37.83;;;0.00;99.90;;;;;;5041183;28;20049;-75
2022/12/10 09:28:59;;;;;;;60.80;37.47;;;0.20;99.90;;;;;;5040179;28;20045;-73
2022/12/10 09:31:26;;;;;;;69.25;41.20;;;1.20;99.90;;;;;;5047148;28;20057;-72
2022/12/10 09:33:52;;;;;;;68.95;39.75;;;0.10;99.90;;;;;;5044727;28;20142;-73
2022/12/10 09:36:19;;;;;;;68.25;37.53;;;0.20;99.90;;;;;;5050225;28;20061;-72
2022/12/10 09:38:45;;;;;;;62.40;37.90;;;1.00;99.90;;;;;;5050089;28;20056;-72
2022/12/10 09:41:36;;;;;;;56.45;32.85;;;0.40;99.90;;;;;;5051951;28;20053;-71
2022/12/10 09:44:28;;;;;;;71.25;38.25;;;0.40;99.90;;;;;;5042134;28;20047;-73
2022/12/10 09:46:59;;;;;;;57.40;34.05;;;1.00;99.90;;;;;;5040059;28;20080;-75
2022/12/10 09:49:47;;;;;;;60.55;35.13;;;0.50;99.90;;;;;;5044294;28;20045;-73
2022/12/10 09:52:17;;;;;;;67.30;39.92;;;0.40;99.90;;;;;;5046488;28;20056;-73
2022/12/10 09:54:49;;;;;;;62.53;35.90;;;1.00;99.90;;;;;;5046804;28;20272;-72
2022/12/10 09:57:33;;;;;;;63.67;36.28;;;1.90;99.90;;;;;;5043234;28;20895;-73
2022/12/10 10:00:24;;;;;;;69.30;39.42;;;0.90;99.90;;;;;;5049994;28;20093;-74
2022/12/10 10:02:51;;;;;;;63.03;34.30;;;0.50;99.90;;;;;;5042489;28;20088;-73
2022/12/10 10:05:24;;;;;;;66.43;35.45;;;0.50;99.90;;;;;;5045943;28;20425;-73
2022/12/10 10:07:53;;;;;;;56.00;37.20;;;1.00;99.90;;;;;;5038099;28;20048;-74
2022/12/10 10:10:29;;;;;;;53.33;33.72;;;0.60;99.90;;;;;;5040937;28;20056;-73
2022/12/10 10:13:01;;;;;;;61.92;36.22;;;1.90;99.90;;;;;;5041199;28;20500;-73
2022/12/10 10:15:32;;;;;;;57.40;35.60;;;0.60;99.90;;;;;;5046636;28;20476;-74
2022/12/10 10:18:03;;;;;;;58.25;35.22;;;0.60;99.90;;;;;;5056783;28;20121;-74
2022/12/10 10:20:29;;;;;;;63.67;37.50;;;1.10;99.90;;;;;;5049730;28;20049;-75
2022/12/10 10:22:58;;;;;;;68.57;38.33;;;0.70;99.90;;;;;;5049909;28;20056;-72
2022/12/10 10:25:24;;;;;;;75.55;42.72;;;1.50;99.90;;;;;;5041262;28;20068;-74
2022/12/10 10:27:50;;;;;;;68.63;40.50;;;0.60;99.90;;;;;;5052025;28;20159;-67
2022/12/10 10:30:21;;;;;;;66.25;35.88;;;0.60;99.90;;;;;;5020749;28;20053;-70
2022/12/10 10:32:51;;;;;;;71.60;39.35;;;0.70;99.90;;;;;;5042742;28;20059;-68
2022/12/10 10:35:33;;;;;;;69.95;39.25;;;0.80;99.90;;;;;;5043225;28;20045;-73
2022/12/10 10:38:06;;;;;;;62.63;39.83;;;0.70;99.90;;;;;;5054516;28;20052;-72
2022/12/10 10:40:38;;;;;;;;;;;0.70;99.90;;;;;;5044723;28;20687;-73
2022/12/10 10:43:04;;;;;;;71.32;39.63;;;0.70;99.90;;;;;;5046031;28;20369;-73
2022/12/10 10:45:32;;;;;;;65.85;39.33;;;1.00;99.90;;;;;;5049124;28;20132;-71
2022/12/10 10:48:25;;;;;;;67.18;37.42;;;0.80;99.90;;;;;;5039670;28;20084;-71
2022/12/10 10:51:04;;;;;;;66.37;38.30;;;0.80;99.90;;;;;;5047992;28;20056;-74
2022/12/10 10:53:40;;;;;;;70.13;44.80;;;1.90;99.90;;;;;;5045420;28;20090;-75
2022/12/10 10:56:17;;;;;;;60.65;39.17;;;1.10;99.90;;;;;;5040202;28;20053;-71
2022/12/10 10:58:53;;;;;;;65.80;40.35;;;1.70;99.90;;;;;;5040941;28;20056;-71
2022/12/10 11:01:20;;;;;;;60.88;41.15;;;2.20;99.90;;;;;;5043538;28;20048;-74
2022/12/10 11:03:54;;;;;;;69.47;41.42;;;1.10;99.90;;;;;;5041388;28;20128;-71
2022/12/10 11:06:20;;;;;;;69.18;39.78;;;2.00;99.90;;;;;;5049770;28;20050;-72
2022/12/10 11:08:48;;;;;;;66.43;41.17;;;1.90;99.90;;;;;;5043786;28;20144;-71
2022/12/10 11:11:31;;;;;;;69.80;41.83;;;2.50;99.90;;;;;;5048023;28;20051;-71
2022/12/10 11:14:25;;;;;;;62.50;37.88;;;1.20;99.90;;;;;;5049467;28;20056;-73
2022/12/10 11:17:00;;;;;;;58.05;35.75;;;1.20;99.90;;;;;;5044373;28;20056;-74
2022/12/10 11:19:26;;;;;;;68.88;41.70;;;1.20;99.90;;;;;;5044608;28;20492;-72
2022/12/10 11:21:52;;;;;;;57.75;37.08;;;1.90;99.90;;;;;;5039339;28;20045;-74
2022/12/10 11:24:20;;;;;;;64.47;40.53;;;1.70;99.90;;;;;;5040530;28;20045;-72
2022/12/10 11:26:55;;;;;;;57.78;35.88;;;2.50;99.90;;;;;;5045314;28;20044;-73
2022/12/10 11:29:45;;;;;;;55.40;34.65;;;1.30;99.90;;;;;;5042121;28;20138;-74
2022/12/10 11:32:23;;;;;;;55.88;34.45;;;1.30;99.90;;;;;;5042586;28;20052;-72
2022/12/10 11:35:08;;;;;;;63.55;37.80;;;1.30;99.90;;;;;;5048763;28;20044;-73
2022/12/10 11:37:36;;;;;;;54.97;34.38;;;2.10;99.90;;;;;;5045586;28;20918;-74
2022/12/10 11:40:18;;;;;;;59.28;34.80;;;1.30;99.90;;;;;;5043756;28;20096;-72
2022/12/10 11:42:52;;;;;;;53.78;35.80;;;1.40;99.90;;;;;;5071104;28;20048;-73
2022/12/10 11:45:41;;;;;;;60.72;36.75;;;1.50;99.90;;;;;;5048302;28;20141;-74
2022/12/10 11:48:31;;;;;;;58.72;34.15;;;1.50;99.90;;;;;;5037725;28;20048;-73
2022/12/10 11:51:08;;;;;;;61.38;34.72;;;1.50;99.90;;;;;;5048266;28;20102;-73
2022/12/10 11:54:12;;;;;;;51.25;32.40;;;1.50;99.90;;;;;;5058742;28;20162;-73
2022/12/10 11:56:44;;;;;;;53.67;37.83;;;1.60;99.90;;;;;;5039839;28;20106;-73
2022/12/10 11:59:13;;;;;;;58.72;34.53;;;1.70;99.90;;;;;;5038559;28;20044;-73
2022/12/10 12:01:53;;;;;;;49.80;31.25;;;1.60;99.90;;;;;;5045794;28;20932;-71
2022/12/10 12:04:50;;;;;;;72.75;38.42;;;1.70;99.90;;;;;;5047570;28;20559;-73
2022/12/10 12:07:25;;;;;;;57.40;31.35;;;1.70;99.90;;;;;;5045345;28;21273;-74
2022/12/10 12:09:57;;;;;;;59.95;38.30;;;1.70;99.90;;;;;;5041691;28;20110;-74
2022/12/10 12:12:22;;;;;;;62.75;39.20;;;1.70;99.90;;;;;;5036857;28;20061;-72
2022/12/10 12:14:50;;;;;;;60.75;36.80;;;1.60;99.90;;;;;;5049235;28;20055;-74
2022/12/10 12:17:28;;;;;;;51.65;31.95;;;1.70;99.90;;;;;;5036476;28;20854;-73
2022/12/10 12:20:11;;;;;;;63.25;37.55;;;1.60;99.90;;;;;;5043406;28;20068;-73
2022/12/10 12:22:43;;;;;;;57.05;34.38;;;1.60;99.90;;;;;;5048041;28;20045;-73
2022/12/10 12:25:28;;;;;;;56.45;34.55;;;1.60;99.90;;;;;;5036565;28;20372;-73
2022/12/10 12:28:03;;;;;;;54.45;32.92;;;1.50;99.90;;;;;;5041105;28;20081;-73
2022/12/10 12:30:32;;;;;;;52.78;31.70;;;1.60;99.90;;;;;;5042698;28;20048;-73
2022/12/10 12:33:01;;;;;;;54.40;33.40;;;1.60;99.90;;;;;;5038224;28;20045;-73
2022/12/10 12:35:38;;;;;;;57.22;34.10;;;1.60;99.90;;;;;;5040415;28;20119;-73
2022/12/10 12:38:50;;;;;;;62.15;34.50;;;1.60;99.90;;;;;;5036361;28;20115;-72
2022/12/10 12:41:36;;;;;;;57.42;32.88;;;1.60;99.90;;;;;;5020872;28;20620;-73
2022/12/10 12:44:18;;;;;;;55.45;36.90;;;1.60;99.90;;;;;;5012129;28;20064;-72
2022/12/10 12:46:46;;;;;;;54.75;33.53;;;1.60;99.90;;;;;;5033225;28;20053;-71
2022/12/10 12:49:29;;;;;;;69.43;37.00;;;1.60;99.90;;;;;;5038277;28;20063;-72
2022/12/10 12:52:00;;;;;;;55.03;34.47;;;1.70;99.90;;;;;;5040839;28;20053;-74
2022/12/10 12:54:26;;;;;;;49.22;30.58;;;1.70;99.90;;;;;;5046189;28;20044;-72
2022/12/10 12:57:12;;;;;;;59.25;36.38;;;1.80;99.90;;;;;;5047021;28;20059;-74
2022/12/10 13:00:03;;;;;;;63.35;33.55;;;1.70;99.90;;;;;;5031731;28;20172;-72